createdAt,value
2022-11-29T00:01:38.212Z,29.27
2022-11-29T00:04:08.482Z,29.20
2022-11-29T00:06:37.254Z,29.77
2022-11-29T00:09:09.484Z,29.67
2022-11-29T00:11:56.713Z,29.73
2022-11-29T00:14:26.142Z,31.17
2022-11-29T00:16:56.206Z,29.80
2022-11-29T00:19:26.216Z,28.07
2022-11-29T00:21:54.671Z,30.80
2022-11-29T00:24:23.332Z,34.87
2022-11-29T00:26:51.753Z,33.43
2022-11-29T00:29:20.423Z,32.70
2022-11-29T00:31:48.816Z,34.00
2022-11-29T00:34:17.272Z,55.10
2022-11-29T00:36:47.079Z,39.60
2022-11-29T00:39:16.395Z,35.67
2022-11-29T00:41:44.943Z,34.07
2022-11-29T00:44:19.686Z,33.70
2022-11-29T00:46:48.783Z,33.47
2022-11-29T00:49:17.418Z,35.47
2022-11-29T00:51:47.546Z,33.47
2022-11-29T00:54:16.008Z,37.53
2022-11-29T00:56:44.477Z,36.03
2022-11-29T00:59:12.965Z,29.87
2022-11-29T01:01:41.464Z,32.00
2022-11-29T01:04:10.125Z,34.13
2022-11-29T01:06:38.528Z,33.07
2022-11-29T01:09:08.343Z,30.20
2022-11-29T01:11:36.905Z,33.30
2022-11-29T01:14:05.650Z,30.37
2022-11-29T01:16:34.488Z,32.23
2022-11-29T01:19:03.349Z,32.53
2022-11-29T01:21:32.115Z,33.20
2022-11-29T01:24:01.613Z,30.50
2022-11-29T01:26:32.125Z,31.43
2022-11-29T01:29:00.618Z,29.67
2022-11-29T01:31:30.885Z,30.37
2022-11-29T01:34:01.380Z,35.63
2022-11-29T01:36:30.159Z,34.40
2022-11-29T01:39:01.249Z,30.73
2022-11-29T01:41:32.638Z,33.13
2022-11-29T01:44:03.510Z,32.33
2022-11-29T01:46:34.486Z,34.67
2022-11-29T01:49:06.233Z,32.07
2022-11-29T01:51:36.025Z,34.37
2022-11-29T01:54:05.173Z,30.70
2022-11-29T01:56:36.213Z,31.07
2022-11-29T01:59:07.833Z,30.70
2022-11-29T02:01:36.733Z,32.03
2022-11-29T02:04:06.121Z,31.17
2022-11-29T02:06:34.840Z,32.63
2022-11-29T02:09:03.333Z,31.03
2022-11-29T02:12:00.141Z,31.77
2022-11-29T02:14:41.248Z,32.33
2022-11-29T02:17:17.724Z,31.70
2022-11-29T02:20:13.705Z,28.90
2022-11-29T02:22:48.334Z,28.50
2022-11-29T02:25:29.120Z,28.43
2022-11-29T02:28:30.188Z,30.43
2022-11-29T02:31:11.835Z,30.60
2022-11-29T02:33:59.201Z,33.50
2022-11-29T02:36:52.461Z,28.40
2022-11-29T02:39:44.626Z,27.87
2022-11-29T02:42:54.362Z,31.00
2022-11-29T02:45:37.537Z,29.63
2022-11-29T02:48:17.112Z,30.17
2022-11-29T02:50:53.734Z,28.80
2022-11-29T02:53:28.388Z,31.40
2022-11-29T02:56:00.791Z,30.27
2022-11-29T02:58:35.140Z,30.03
2022-11-29T03:01:10.619Z,30.50
2022-11-29T03:03:42.292Z,29.40
2022-11-29T03:06:18.033Z,32.77
2022-11-29T03:08:52.849Z,29.90
2022-11-29T03:11:28.016Z,32.70
2022-11-29T03:14:05.300Z,31.67
2022-11-29T03:16:43.100Z,31.53
2022-11-29T03:19:30.796Z,30.80
2022-11-29T03:22:10.887Z,31.90
2022-11-29T03:24:44.181Z,33.27
2022-11-29T03:27:14.854Z,33.40
2022-11-29T03:29:49.492Z,33.07
2022-11-29T03:32:21.983Z,33.10
2022-11-29T03:34:57.815Z,32.73
2022-11-29T03:37:31.643Z,32.93
2022-11-29T03:40:04.949Z,32.40
2022-11-29T03:42:37.393Z,32.83
2022-11-29T03:45:09.485Z,34.20
2022-11-29T03:47:43.150Z,40.43
2022-11-29T03:50:15.717Z,35.47
2022-11-29T03:52:50.528Z,37.53
2022-11-29T03:55:33.238Z,35.97
2022-11-29T03:58:19.300Z,45.17
2022-11-29T04:01:03.697Z,41.37
2022-11-29T04:03:58.825Z,36.90
2022-11-29T04:06:38.584Z,36.97
2022-11-29T04:09:28.192Z,34.77
2022-11-29T04:12:28.642Z,34.70
2022-11-29T04:15:15.676Z,36.00
2022-11-29T04:18:12.999Z,39.17
2022-11-29T04:21:02.503Z,38.10
2022-11-29T04:23:58.865Z,44.87
2022-11-29T04:26:45.832Z,62.70
2022-11-29T04:29:21.597Z,57.87
2022-11-29T04:32:04.765Z,55.30
2022-11-29T04:34:58.366Z,45.57
2022-11-29T04:37:45.953Z,45.27
2022-11-29T04:40:27.796Z,40.80
2022-11-29T04:43:07.485Z,44.30
2022-11-29T04:46:13.078Z,42.07
2022-11-29T04:48:55.353Z,44.73
2022-11-29T04:51:38.111Z,41.33
2022-11-29T04:54:12.133Z,41.57
2022-11-29T04:56:44.437Z,47.77
2022-11-29T04:59:20.461Z,54.67
2022-11-29T05:01:59.091Z,54.37
2022-11-29T05:04:33.330Z,49.43
2022-11-29T05:07:04.802Z,45.00
2022-11-29T05:09:42.193Z,50.00
2022-11-29T05:12:15.839Z,56.90
2022-11-29T05:14:56.344Z,50.53
2022-11-29T05:17:32.881Z,40.33
2022-11-29T05:20:23.384Z,45.10
2022-11-29T05:23:05.658Z,74.73
2022-11-29T05:25:41.256Z,101.33
2022-11-29T05:28:12.628Z,109.90
2022-11-29T05:31:06.655Z,90.90
2022-11-29T05:33:49.783Z,58.07
2022-11-29T05:36:26.846Z,45.00
2022-11-29T05:39:06.570Z,41.40
2022-11-29T05:41:51.973Z,38.00
2022-11-29T05:44:25.632Z,36.00
2022-11-29T05:46:56.901Z,36.20
2022-11-29T05:49:34.713Z,36.27
2022-11-29T05:52:22.274Z,36.00
2022-11-29T05:55:00.362Z,37.17
2022-11-29T05:57:35.601Z,37.13
2022-11-29T06:00:05.775Z,41.87
2022-11-29T06:02:44.255Z,45.50
2022-11-29T06:05:17.282Z,44.33
2022-11-29T06:07:51.741Z,39.30
2022-11-29T06:10:22.465Z,38.80
2022-11-29T06:13:00.878Z,35.00
2022-11-29T06:16:08.874Z,37.33
2022-11-29T06:19:13.019Z,35.50
2022-11-29T06:21:45.737Z,35.60
2022-11-29T06:24:27.674Z,39.50
2022-11-29T06:27:12.913Z,39.77
2022-11-29T06:29:45.945Z,43.47
2022-11-29T06:32:22.735Z,39.87
2022-11-29T06:34:59.190Z,48.13
2022-11-29T06:37:31.309Z,44.93
2022-11-29T06:40:00.174Z,43.70
2022-11-29T06:42:28.610Z,44.10
2022-11-29T06:44:57.373Z,41.87
2022-11-29T06:47:30.132Z,44.97
2022-11-29T06:50:06.652Z,47.33
2022-11-29T06:52:41.225Z,46.07
2022-11-29T06:55:18.280Z,46.97
2022-11-29T06:57:57.069Z,48.67
2022-11-29T07:00:28.149Z,44.13
2022-11-29T07:03:07.683Z,43.53
2022-11-29T07:05:38.320Z,43.37
2022-11-29T07:08:10.017Z,53.83
2022-11-29T07:10:40.781Z,45.50
2022-11-29T07:13:11.218Z,42.53
2022-11-29T07:15:40.681Z,41.83
2022-11-29T07:18:18.849Z,38.90
2022-11-29T07:20:56.203Z,36.70
2022-11-29T07:23:31.164Z,35.70
2022-11-29T07:26:10.143Z,40.17
2022-11-29T07:28:47.244Z,41.17
2022-11-29T07:31:21.826Z,51.47
2022-11-29T07:33:57.284Z,42.67
2022-11-29T07:36:35.639Z,40.90
2022-11-29T07:39:15.152Z,36.33
2022-11-29T07:41:49.415Z,35.73
2022-11-29T07:44:26.678Z,34.87
2022-11-29T07:46:55.145Z,31.13
2022-11-29T07:49:23.621Z,36.53
2022-11-29T07:51:55.486Z,34.43
2022-11-29T07:54:24.200Z,32.73
2022-11-29T07:56:52.619Z,32.77
2022-11-29T07:59:21.124Z,33.07
2022-11-29T08:01:49.603Z,31.33
2022-11-29T08:04:18.057Z,31.43
2022-11-29T08:06:46.586Z,31.43
2022-11-29T08:09:16.305Z,35.70
2022-11-29T08:11:44.850Z,35.30
2022-11-29T08:14:13.245Z,29.87
2022-11-29T08:16:41.761Z,32.13
2022-11-29T08:19:10.304Z,34.50
2022-11-29T08:21:38.776Z,34.67
2022-11-29T08:24:07.497Z,31.83
2022-11-29T08:26:37.254Z,47.83
2022-11-29T08:29:05.678Z,30.30
2022-11-29T08:31:34.126Z,31.47
2022-11-29T08:34:02.536Z,29.83
2022-11-29T08:36:30.946Z,33.30
2022-11-29T08:39:08.673Z,31.03
2022-11-29T08:41:39.295Z,32.70
2022-11-29T08:44:08.018Z,31.77
2022-11-29T08:46:54.057Z,31.90
2022-11-29T08:49:22.622Z,30.93
2022-11-29T08:51:53.197Z,31.73
2022-11-29T08:54:20.834Z,33.53
2022-11-29T08:57:23.683Z,30.70
2022-11-29T08:59:39.009Z,48.47
2022-11-29T09:02:07.785Z,31.77
2022-11-29T09:04:36.339Z,29.23
2022-11-29T09:07:04.801Z,32.63
2022-11-29T09:09:33.224Z,27.93
2022-11-29T09:12:02.987Z,29.57
2022-11-29T09:14:31.464Z,30.77
2022-11-29T09:16:59.849Z,27.50
2022-11-29T09:19:28.342Z,27.23
2022-11-29T09:21:56.899Z,27.23
2022-11-29T09:24:25.348Z,26.80
2022-11-29T09:26:53.813Z,23.40
2022-11-29T09:29:23.598Z,26.27
2022-11-29T09:31:52.100Z,27.87
2022-11-29T09:34:20.549Z,26.90
2022-11-29T09:36:48.957Z,26.53
2022-11-29T09:39:17.480Z,24.63
2022-11-29T09:42:07.657Z,25.80
2022-11-29T09:44:45.130Z,26.03
2022-11-29T09:47:23.611Z,26.30
2022-11-29T09:50:13.466Z,24.33
2022-11-29T09:52:51.540Z,31.47
2022-11-29T09:55:48.539Z,27.73
2022-11-29T09:58:20.793Z,23.17
2022-11-29T10:00:52.153Z,23.73
2022-11-29T10:03:25.579Z,24.33
2022-11-29T10:05:58.590Z,26.10
2022-11-29T10:08:33.151Z,25.17
2022-11-29T10:11:12.801Z,31.17
2022-11-29T10:13:45.708Z,30.70
2022-11-29T10:16:20.373Z,25.50
2022-11-29T10:18:52.688Z,24.70
2022-11-29T10:21:23.909Z,28.37
2022-11-29T10:23:55.430Z,27.30
2022-11-29T10:26:25.899Z,28.70
2022-11-29T10:28:58.016Z,28.53
2022-11-29T10:31:29.810Z,31.13
2022-11-29T10:34:01.623Z,45.30
2022-11-29T10:36:34.593Z,56.63
2022-11-29T10:39:09.969Z,40.60
2022-11-29T10:41:41.498Z,40.43
2022-11-29T10:44:13.868Z,39.67
2022-11-29T10:46:43.679Z,41.17
2022-11-29T10:49:14.834Z,48.70
2022-11-29T10:51:43.347Z,56.27
2022-11-29T10:54:21.705Z,50.23
2022-11-29T10:56:50.257Z,58.90
2022-11-29T10:59:23.272Z,53.17
2022-11-29T11:01:53.528Z,43.60
2022-11-29T11:04:28.045Z,46.03
2022-11-29T11:06:58.385Z,73.13
2022-11-29T11:09:31.374Z,106.77
2022-11-29T11:12:01.609Z,59.33
2022-11-29T11:14:33.031Z,50.83
2022-11-29T11:17:21.483Z,58.23
2022-11-29T11:19:57.119Z,50.53
2022-11-29T11:22:26.491Z,47.83
2022-11-29T11:25:00.436Z,52.90
2022-11-29T11:27:33.795Z,54.33
2022-11-29T11:30:03.467Z,87.63
2022-11-29T11:32:33.414Z,62.50
2022-11-29T11:35:03.181Z,53.37
2022-11-29T11:37:32.949Z,45.13
2022-11-29T11:40:19.433Z,42.80
2022-11-29T11:42:48.319Z,40.10
2022-11-29T11:45:38.762Z,41.37
2022-11-29T11:48:14.509Z,46.47
2022-11-29T11:50:45.692Z,44.47
2022-11-29T11:53:21.866Z,46.10
2022-11-29T11:55:57.271Z,42.53
2022-11-29T11:58:26.294Z,43.43
2022-11-29T12:01:03.995Z,41.00
2022-11-29T12:03:39.146Z,45.87
2022-11-29T12:06:26.094Z,48.43
2022-11-29T12:08:57.138Z,62.57
2022-11-29T12:11:26.082Z,45.90
2022-11-29T12:13:56.924Z,44.40
2022-11-29T12:16:29.683Z,45.80
2022-11-29T12:19:04.486Z,48.00
2022-11-29T12:21:36.070Z,45.00
2022-11-29T12:24:10.126Z,42.13
2022-11-29T12:26:57.602Z,50.07
2022-11-29T12:29:30.041Z,39.60
2022-11-29T12:32:08.352Z,43.40
2022-11-29T12:34:50.264Z,46.63
2022-11-29T12:37:24.077Z,42.43
2022-11-29T12:39:58.620Z,39.90
2022-11-29T12:42:37.326Z,35.53
2022-11-29T12:45:36.354Z,40.13
2022-11-29T12:48:14.696Z,41.73
2022-11-29T12:50:53.636Z,40.53
2022-11-29T12:53:41.075Z,45.57
2022-11-29T12:56:16.512Z,41.70
2022-11-29T12:58:58.472Z,40.37
2022-11-29T13:01:34.321Z,51.30
2022-11-29T13:04:08.771Z,45.80
2022-11-29T13:06:42.826Z,46.43
2022-11-29T13:09:27.323Z,41.47
2022-11-29T13:11:59.171Z,44.53
2022-11-29T13:14:48.464Z,41.53
2022-11-29T13:17:28.591Z,43.63
2022-11-29T13:19:58.666Z,38.17
2022-11-29T13:22:32.899Z,42.13
2022-11-29T13:25:05.264Z,42.70
2022-11-29T13:27:37.696Z,41.83
2022-11-29T13:30:07.833Z,44.00
2022-11-29T13:32:37.775Z,42.50
2022-11-29T13:35:09.601Z,42.10
2022-11-29T13:37:47.477Z,41.50
2022-11-29T13:40:26.363Z,41.90
2022-11-29T13:43:01.222Z,44.47
2022-11-29T13:45:35.428Z,46.47
2022-11-29T13:48:34.626Z,46.13
2022-11-29T13:51:27.993Z,49.30
2022-11-29T13:53:59.489Z,45.27
2022-11-29T13:56:32.885Z,46.90
2022-11-29T13:59:02.312Z,47.30
2022-11-29T14:01:30.792Z,49.13
2022-11-29T14:04:07.959Z,45.03
2022-11-29T14:06:37.491Z,42.63
2022-11-29T14:09:35.794Z,42.53
2022-11-29T14:12:07.499Z,43.23
2022-11-29T14:14:40.808Z,43.30
2022-11-29T14:17:36.913Z,43.90
2022-11-29T14:20:51.308Z,44.33
2022-11-29T14:23:35.969Z,41.13
2022-11-29T14:26:29.154Z,44.37
2022-11-29T14:28:59.154Z,46.97
2022-11-29T14:31:55.427Z,47.90
2022-11-29T14:34:36.115Z,55.13
2022-11-29T14:37:23.929Z,59.43
2022-11-29T14:39:54.390Z,48.27
2022-11-29T14:42:31.217Z,46.47
2022-11-29T14:45:01.585Z,46.37
2022-11-29T14:47:32.615Z,53.47
2022-11-29T14:50:04.096Z,43.27
2022-11-29T14:52:34.892Z,47.33
2022-11-29T14:55:09.877Z,52.57
2022-11-29T14:58:18.122Z,49.73
2022-11-29T15:01:10.690Z,44.33
2022-11-29T15:03:49.409Z,47.30
2022-11-29T15:06:26.403Z,45.90
2022-11-29T15:08:59.982Z,44.43
2022-11-29T15:11:53.069Z,47.00
2022-11-29T15:14:29.395Z,44.53
2022-11-29T15:17:16.365Z,47.77
2022-11-29T15:20:10.039Z,50.20
2022-11-29T15:22:46.948Z,51.17
2022-11-29T15:25:17.605Z,50.50
2022-11-29T15:27:56.462Z,46.90
2022-11-29T15:30:34.760Z,65.93
2022-11-29T15:33:05.826Z,50.33
2022-11-29T15:35:35.413Z,47.50
2022-11-29T15:38:04.349Z,48.83
2022-11-29T15:40:37.134Z,64.10
2022-11-29T15:43:16.181Z,50.33
2022-11-29T15:45:49.453Z,56.90
2022-11-29T15:48:20.288Z,61.43
2022-11-29T15:50:57.059Z,57.20
2022-11-29T15:53:29.867Z,48.63
2022-11-29T15:55:59.878Z,46.90
2022-11-29T15:58:29.545Z,46.27
2022-11-29T16:00:59.979Z,53.53
2022-11-29T16:03:30.894Z,44.97
2022-11-29T16:06:04.901Z,44.30
2022-11-29T16:08:37.600Z,44.03
2022-11-29T16:11:07.182Z,48.70
2022-11-29T16:13:40.438Z,46.20
2022-11-29T16:16:15.389Z,45.73
2022-11-29T16:18:45.948Z,45.80
2022-11-29T16:21:26.430Z,46.77
2022-11-29T16:23:55.603Z,58.47
2022-11-29T16:26:25.542Z,53.33
2022-11-29T16:28:56.387Z,48.47
2022-11-29T16:31:34.187Z,47.73
2022-11-29T16:34:08.655Z,45.13
2022-11-29T16:36:37.494Z,53.97
2022-11-29T16:39:08.117Z,59.87
2022-11-29T16:41:37.650Z,71.60
2022-11-29T16:44:07.674Z,63.43
2022-11-29T16:46:41.442Z,52.53
2022-11-29T16:49:33.506Z,45.37
2022-11-29T16:52:02.617Z,45.27
2022-11-29T16:54:34.132Z,42.27
2022-11-29T16:57:05.933Z,46.37
2022-11-29T16:59:35.371Z,43.83
2022-11-29T17:02:09.719Z,44.03
2022-11-29T17:04:38.147Z,43.43
2022-11-29T17:07:08.230Z,51.37
2022-11-29T17:09:36.814Z,52.17
2022-11-29T17:12:05.429Z,54.87
2022-11-29T17:14:34.044Z,55.10
2022-11-29T17:17:03.907Z,48.37
2022-11-29T17:19:32.501Z,46.53
2022-11-29T17:22:00.936Z,44.67
2022-11-29T17:24:29.350Z,48.50
2022-11-29T17:26:57.745Z,61.00
2022-11-29T17:29:26.559Z,53.93
2022-11-29T17:31:55.217Z,53.73
2022-11-29T17:34:25.214Z,51.57
2022-11-29T17:36:53.648Z,48.83
2022-11-29T17:39:22.684Z,51.00
2022-11-29T17:41:51.081Z,57.90
2022-11-29T17:44:19.492Z,54.90
2022-11-29T17:46:47.983Z,54.27
2022-11-29T17:49:18.662Z,47.57
2022-11-29T17:51:53.076Z,49.80
2022-11-29T17:54:22.397Z,47.37
2022-11-29T17:56:51.501Z,42.57
2022-11-29T17:59:20.500Z,47.23
2022-11-29T18:01:49.061Z,44.50
2022-11-29T18:04:18.817Z,43.40
2022-11-29T18:06:50.177Z,46.23
2022-11-29T18:09:19.615Z,49.13
2022-11-29T18:11:50.690Z,49.67
2022-11-29T18:14:21.344Z,52.67
2022-11-29T18:16:50.199Z,53.17
2022-11-29T18:19:22.134Z,52.27
2022-11-29T18:21:52.536Z,46.43
2022-11-29T18:24:20.965Z,50.00
2022-11-29T18:26:49.549Z,47.70
2022-11-29T18:29:18.224Z,51.93
2022-11-29T18:31:47.137Z,49.33
2022-11-29T18:34:16.187Z,48.70
2022-11-29T18:36:46.100Z,48.00
2022-11-29T18:39:17.505Z,48.97
2022-11-29T18:41:48.406Z,45.27
2022-11-29T18:44:18.916Z,40.60
2022-11-29T18:46:47.910Z,46.40
2022-11-29T18:49:17.926Z,50.20
2022-11-29T18:51:46.883Z,48.47
2022-11-29T18:54:17.638Z,53.40
2022-11-29T18:56:47.337Z,49.97
2022-11-29T18:59:17.809Z,50.50
2022-11-29T19:01:48.295Z,43.60
2022-11-29T19:04:18.590Z,49.33
2022-11-29T19:06:47.674Z,50.23
2022-11-29T19:09:19.327Z,47.17
2022-11-29T19:11:48.696Z,51.20
2022-11-29T19:14:17.372Z,49.00
2022-11-29T19:16:47.399Z,49.83
2022-11-29T19:19:15.805Z,49.20
2022-11-29T19:21:44.248Z,53.33
2022-11-29T19:24:15.145Z,48.40
2022-11-29T19:26:46.429Z,48.93
2022-11-29T19:29:15.575Z,52.60
2022-11-29T19:31:44.234Z,50.47
2022-11-29T19:34:12.746Z,50.80
2022-11-29T19:36:43.341Z,50.80
2022-11-29T19:39:13.153Z,52.00
2022-11-29T19:41:44.806Z,53.70
2022-11-29T19:44:13.589Z,54.10
2022-11-29T19:46:43.611Z,54.10
2022-11-29T19:49:12.308Z,60.13
2022-11-29T19:51:40.890Z,55.43
2022-11-29T19:54:10.399Z,55.17
2022-11-29T19:56:39.680Z,54.73
2022-11-29T19:59:09.989Z,60.00
2022-11-29T20:01:41.728Z,59.07
2022-11-29T20:04:11.411Z,52.07
2022-11-29T20:06:41.690Z,50.37
2022-11-29T20:09:10.286Z,48.83
2022-11-29T20:11:39.224Z,43.83
2022-11-29T20:14:09.587Z,45.47
2022-11-29T20:16:39.165Z,37.97
2022-11-29T20:19:11.965Z,45.50
2022-11-29T20:21:43.719Z,42.67
2022-11-29T20:24:12.976Z,45.30
2022-11-29T20:26:43.148Z,46.33
2022-11-29T20:29:13.558Z,43.50
2022-11-29T20:31:49.027Z,42.07
2022-11-29T20:34:20.304Z,45.60
2022-11-29T20:37:16.147Z,42.23
2022-11-29T20:39:48.041Z,40.27
2022-11-29T20:42:45.004Z,39.03
2022-11-29T20:45:16.504Z,37.43
2022-11-29T20:47:51.261Z,40.00
2022-11-29T20:50:23.595Z,42.40
2022-11-29T20:53:05.230Z,39.53
2022-11-29T20:55:34.472Z,47.77
2022-11-29T20:58:03.133Z,45.80
2022-11-29T21:00:33.097Z,48.83
2022-11-29T21:03:02.107Z,52.30
2022-11-29T21:05:30.969Z,55.67
2022-11-29T21:07:59.710Z,62.47
2022-11-29T21:10:28.593Z,66.73
2022-11-29T21:12:57.281Z,51.97
2022-11-29T21:15:26.361Z,46.43
2022-11-29T21:17:56.927Z,46.13
2022-11-29T21:20:27.030Z,50.30
2022-11-29T21:23:01.853Z,45.97
2022-11-29T21:25:39.053Z,39.97
2022-11-29T21:28:12.630Z,43.33
2022-11-29T21:30:41.950Z,45.33
2022-11-29T21:33:12.706Z,44.37
2022-11-29T21:35:41.492Z,59.70
2022-11-29T21:38:16.204Z,55.77
2022-11-29T21:40:44.675Z,46.90
2022-11-29T21:43:14.195Z,49.30
2022-11-29T21:45:42.647Z,50.80
2022-11-29T21:48:26.340Z,51.93
2022-11-29T21:50:56.387Z,50.40
2022-11-29T21:53:24.895Z,51.27
2022-11-29T21:55:57.985Z,43.53
2022-11-29T21:58:26.553Z,48.63
2022-11-29T22:00:55.282Z,42.83
2022-11-29T22:03:25.125Z,119.32
2022-11-29T22:05:53.613Z,71.57
2022-11-29T22:08:22.163Z,45.03
2022-11-29T22:10:51.124Z,25.50
2022-11-29T22:13:19.499Z,30.27
2022-11-29T22:15:47.969Z,34.03
2022-11-29T22:18:16.437Z,37.00
2022-11-29T22:20:49.652Z,36.70
2022-11-29T22:23:18.214Z,32.23
2022-11-29T22:25:46.729Z,33.53
2022-11-29T22:28:15.174Z,28.53
2022-11-29T22:30:43.580Z,33.37
2022-11-29T22:33:13.541Z,36.70
2022-11-29T22:35:44.316Z,36.60
2022-11-29T22:38:14.113Z,38.13
2022-11-29T22:40:42.553Z,35.97
2022-11-29T22:43:10.955Z,38.07
2022-11-29T22:45:39.373Z,37.77
2022-11-29T22:48:07.960Z,38.60
2022-11-29T22:50:36.679Z,42.00
2022-11-29T22:53:05.326Z,42.47
2022-11-29T22:55:35.520Z,41.93
2022-11-29T22:58:04.522Z,38.60
2022-11-29T23:00:42.269Z,57.73
2022-11-29T23:03:11.042Z,68.50
2022-11-29T23:05:40.366Z,51.83
2022-11-29T23:08:09.288Z,39.80
2022-11-29T23:10:39.656Z,38.53
2022-11-29T23:13:08.501Z,34.37
2022-11-29T23:15:37.279Z,34.67
2022-11-29T23:18:06.532Z,35.07
2022-11-29T23:20:35.150Z,35.30
2022-11-29T23:23:03.639Z,32.97
2022-11-29T23:25:32.088Z,33.10
2022-11-29T23:28:01.879Z,31.83
2022-11-29T23:30:30.429Z,32.97
2022-11-29T23:32:58.886Z,31.07
2022-11-29T23:35:27.510Z,39.10
2022-11-29T23:37:55.903Z,41.33
2022-11-29T23:40:24.297Z,40.37
2022-11-29T23:42:52.981Z,35.37
2022-11-29T23:45:22.726Z,33.40
2022-11-29T23:47:51.199Z,33.77
2022-11-29T23:50:19.610Z,33.67
2022-11-29T23:52:53.827Z,33.60
2022-11-29T23:55:22.373Z,32.13
2022-11-29T23:57:51.124Z,34.00
